createdAt,value
2017-03-30T00:00:24.052Z,0
2017-03-30T00:01:24.037Z,0
2017-03-30T00:02:24.082Z,0
2017-03-30T00:03:24.051Z,0
2017-03-30T00:04:24.088Z,0
2017-03-30T00:05:27.333Z,0
2017-03-30T00:06:24.144Z,0
2017-03-30T00:07:24.128Z,0
2017-03-30T00:08:23.880Z,0
2017-03-30T00:09:24.196Z,0
2017-03-30T00:10:24.409Z,0
2017-03-30T00:11:24.218Z,0
2017-03-30T00:12:23.921Z,0
2017-03-30T00:13:24.251Z,0
2017-03-30T00:14:23.965Z,0
2017-03-30T00:15:24.288Z,0
2017-03-30T00:16:24.310Z,0
2017-03-30T00:17:24.332Z,0
2017-03-30T00:18:24.358Z,0
2017-03-30T00:19:24.369Z,0
2017-03-30T00:20:24.394Z,0
2017-03-30T00:21:24.408Z,0
2017-03-30T00:22:24.424Z,0
2017-03-30T00:23:24.482Z,0
2017-03-30T00:24:24.459Z,0
2017-03-30T00:25:24.487Z,0
2017-03-30T00:26:24.506Z,0
2017-03-30T00:27:24.732Z,0
2017-03-30T00:28:24.221Z,0
2017-03-30T00:29:24.615Z,0
2017-03-30T00:30:24.273Z,0
2017-03-30T00:31:24.622Z,0
2017-03-30T00:32:24.302Z,0
2017-03-30T00:33:24.638Z,0
2017-03-30T00:34:24.647Z,0
2017-03-30T00:35:24.785Z,0
2017-03-30T00:36:24.791Z,0
2017-03-30T00:37:24.396Z,0
2017-03-30T00:38:24.414Z,0
2017-03-30T00:39:24.127Z,0
2017-03-30T00:40:24.881Z,0
2017-03-30T00:41:24.590Z,0
2017-03-30T00:42:24.876Z,0
2017-03-30T00:43:24.607Z,0
2017-03-30T00:44:24.615Z,0
2017-03-30T00:45:24.624Z,0
2017-03-30T00:46:24.927Z,0
2017-03-30T00:47:24.632Z,0
2017-03-30T00:48:24.931Z,0
2017-03-30T00:49:24.639Z,0
2017-03-30T00:50:24.964Z,0
2017-03-30T00:51:24.975Z,0
2017-03-30T00:52:24.782Z,0
2017-03-30T00:53:24.816Z,0
2017-03-30T00:54:25.040Z,0
2017-03-30T00:55:25.077Z,0
2017-03-30T00:56:24.878Z,0
2017-03-30T00:57:25.145Z,0
2017-03-30T00:58:25.115Z,0
2017-03-30T00:59:25.137Z,0
2017-03-30T01:00:25.148Z,0
2017-03-30T01:01:24.937Z,0
2017-03-30T01:02:25.207Z,0
2017-03-30T01:03:25.209Z,0
2017-03-30T01:04:25.251Z,0
2017-03-30T01:05:25.298Z,0
2017-03-30T01:06:25.272Z,0
2017-03-30T01:07:25.013Z,0
2017-03-30T01:08:24.998Z,0
2017-03-30T01:09:25.323Z,0
2017-03-30T01:10:25.401Z,0
2017-03-30T01:11:25.367Z,0
2017-03-30T01:12:25.186Z,0
2017-03-30T01:13:25.401Z,0
2017-03-30T01:14:25.420Z,0
2017-03-30T01:15:25.128Z,0
2017-03-30T01:16:25.462Z,0
2017-03-30T01:17:25.173Z,0
2017-03-30T01:18:24.919Z,0
2017-03-30T01:19:25.210Z,0
2017-03-30T01:20:25.541Z,0
2017-03-30T01:21:25.561Z,0
2017-03-30T01:22:25.582Z,0
2017-03-30T01:23:25.600Z,0
2017-03-30T01:24:25.628Z,0
2017-03-30T01:25:25.637Z,0
2017-03-30T01:26:25.373Z,0
2017-03-30T01:27:25.688Z,0
2017-03-30T01:28:25.693Z,0
2017-03-30T01:29:25.719Z,0
2017-03-30T01:30:25.432Z,0
2017-03-30T01:31:25.760Z,0
2017-03-30T01:32:25.966Z,0
2017-03-30T01:33:25.794Z,0
2017-03-30T01:34:25.819Z,0
2017-03-30T01:35:25.518Z,0
2017-03-30T01:36:25.537Z,0
2017-03-30T01:37:25.874Z,0
2017-03-30T01:38:25.573Z,0
2017-03-30T01:39:25.922Z,0
2017-03-30T01:40:25.741Z,0
2017-03-30T01:41:25.945Z,0
2017-03-30T01:42:25.962Z,0
2017-03-30T01:43:25.978Z,0
2017-03-30T01:44:26.005Z,0
2017-03-30T01:45:26.021Z,0
2017-03-30T01:46:26.039Z,0
2017-03-30T01:47:26.109Z,0
2017-03-30T01:48:25.540Z,0
2017-03-30T01:49:25.548Z,0
2017-03-30T01:50:26.125Z,0
2017-03-30T01:51:25.835Z,0
2017-03-30T01:52:25.846Z,0
2017-03-30T01:53:26.176Z,0
2017-03-30T01:54:26.077Z,0
2017-03-30T01:55:26.209Z,0
2017-03-30T01:56:25.916Z,0
2017-03-30T01:57:25.931Z,0
2017-03-30T01:58:26.261Z,0
2017-03-30T01:59:26.284Z,0
2017-03-30T02:00:26.303Z,0
2017-03-30T02:01:26.323Z,0
2017-03-30T02:02:26.342Z,0
2017-03-30T02:03:26.369Z,0
2017-03-30T02:04:26.381Z,0
2017-03-30T02:05:26.087Z,0
2017-03-30T02:06:26.411Z,0
2017-03-30T02:07:26.439Z,0
2017-03-30T02:08:26.455Z,0
2017-03-30T02:09:25.854Z,0
2017-03-30T02:10:26.499Z,0
2017-03-30T02:11:26.513Z,0
2017-03-30T02:12:26.533Z,0
2017-03-30T02:13:26.236Z,0
2017-03-30T02:14:26.570Z,0
2017-03-30T02:15:26.587Z,0
2017-03-30T02:16:26.300Z,0
2017-03-30T02:17:26.355Z,0
2017-03-30T02:18:26.646Z,0
2017-03-30T02:19:26.686Z,0
2017-03-30T02:20:26.679Z,0
2017-03-30T02:21:26.707Z,0
2017-03-30T02:22:26.416Z,0
2017-03-30T02:23:26.747Z,0
2017-03-30T02:24:26.761Z,0
2017-03-30T02:25:26.778Z,0
2017-03-30T02:26:26.484Z,0
2017-03-30T02:27:26.818Z,0
2017-03-30T02:28:26.836Z,0
2017-03-30T02:29:26.855Z,0
2017-03-30T02:30:26.891Z,0
2017-03-30T02:31:26.896Z,0
2017-03-30T02:32:26.909Z,0
2017-03-30T02:33:26.932Z,0
2017-03-30T02:34:26.957Z,0
2017-03-30T02:35:26.663Z,0
2017-03-30T02:36:26.990Z,0
2017-03-30T02:37:27.004Z,0
2017-03-30T02:38:27.023Z,0
2017-03-30T02:39:27.041Z,0
2017-03-30T02:40:27.063Z,0
2017-03-30T02:41:27.086Z,0
2017-03-30T02:42:27.105Z,0
2017-03-30T02:43:27.119Z,0
2017-03-30T02:44:26.832Z,0
2017-03-30T02:45:26.845Z,0
2017-03-30T02:46:26.867Z,0
2017-03-30T02:47:26.885Z,0
2017-03-30T02:48:26.904Z,0
2017-03-30T02:49:27.234Z,0
2017-03-30T02:50:27.255Z,0
2017-03-30T02:51:27.277Z,0
2017-03-30T02:52:27.290Z,0
2017-03-30T02:53:26.994Z,0
2017-03-30T02:54:27.020Z,0
2017-03-30T02:55:27.037Z,0
2017-03-30T02:56:27.366Z,0
2017-03-30T02:57:27.387Z,0
2017-03-30T02:58:27.410Z,0
2017-03-30T02:59:27.551Z,0
2017-03-30T03:00:26.816Z,0
2017-03-30T03:01:27.161Z,0
2017-03-30T03:02:27.165Z,0
2017-03-30T03:03:27.580Z,0
2017-03-30T03:04:27.207Z,0
2017-03-30T03:05:27.588Z,0
2017-03-30T03:06:27.252Z,0
2017-03-30T03:07:27.666Z,0
2017-03-30T03:08:27.667Z,0
2017-03-30T03:09:27.298Z,0
2017-03-30T03:10:27.317Z,0
2017-03-30T03:11:27.656Z,0
2017-03-30T03:12:27.789Z,0
2017-03-30T03:13:27.375Z,0
2017-03-30T03:14:27.807Z,0
2017-03-30T03:15:27.532Z,0
2017-03-30T03:16:27.845Z,0
2017-03-30T03:17:27.866Z,0
2017-03-30T03:18:28.048Z,0
2017-03-30T03:19:27.938Z,0
2017-03-30T03:20:27.945Z,0
2017-03-30T03:21:27.635Z,0
2017-03-30T03:22:27.954Z,0
2017-03-30T03:23:27.963Z,0
2017-03-30T03:24:28.103Z,0
2017-03-30T03:25:28.113Z,0
2017-03-30T03:26:28.123Z,0
2017-03-30T03:27:28.126Z,0
2017-03-30T03:28:27.780Z,0
2017-03-30T03:29:28.142Z,0
2017-03-30T03:30:28.154Z,0
2017-03-30T03:31:28.163Z,0
2017-03-30T03:32:28.123Z,0
2017-03-30T03:33:28.133Z,0
2017-03-30T03:34:28.127Z,0
2017-03-30T03:35:28.142Z,0
2017-03-30T03:36:28.164Z,0
2017-03-30T03:37:27.917Z,0
2017-03-30T03:38:28.168Z,0
2017-03-30T03:39:27.963Z,0
2017-03-30T03:40:27.896Z,0
2017-03-30T03:41:28.015Z,0
2017-03-30T03:42:27.927Z,0
2017-03-30T03:43:28.253Z,0
2017-03-30T03:44:27.956Z,0
2017-03-30T03:45:27.989Z,0
2017-03-30T03:46:28.317Z,0
2017-03-30T03:47:28.124Z,0
2017-03-30T03:48:28.344Z,0
2017-03-30T03:49:28.053Z,0
2017-03-30T03:50:28.144Z,0
2017-03-30T03:51:28.410Z,0
2017-03-30T03:52:28.422Z,0
2017-03-30T03:53:28.440Z,0
2017-03-30T03:54:28.458Z,0
2017-03-30T03:55:28.478Z,0
2017-03-30T03:56:28.509Z,0
2017-03-30T03:57:28.210Z,0
2017-03-30T03:58:28.538Z,0
2017-03-30T03:59:28.246Z,0
2017-03-30T04:00:28.274Z,0
2017-03-30T04:01:28.592Z,0
2017-03-30T04:02:28.712Z,0
2017-03-30T04:03:28.637Z,0
2017-03-30T04:04:28.651Z,0
2017-03-30T04:05:28.667Z,0
2017-03-30T04:06:28.689Z,0
2017-03-30T04:07:28.077Z,0
2017-03-30T04:08:28.729Z,0
2017-03-30T04:09:28.740Z,0
2017-03-30T04:10:28.788Z,0
2017-03-30T04:11:28.784Z,0
2017-03-30T04:12:28.796Z,0
2017-03-30T04:13:28.834Z,0
2017-03-30T04:14:28.837Z,0
2017-03-30T04:15:28.856Z,0
2017-03-30T04:16:28.879Z,0
2017-03-30T04:17:28.895Z,0
2017-03-30T04:18:28.913Z,0
2017-03-30T04:19:28.939Z,0
2017-03-30T04:20:28.957Z,0
2017-03-30T04:21:28.694Z,0
2017-03-30T04:22:29.064Z,0
2017-03-30T04:23:29.009Z,0
2017-03-30T04:24:29.026Z,0
2017-03-30T04:25:28.430Z,0
2017-03-30T04:26:28.759Z,0
2017-03-30T04:27:29.090Z,0
2017-03-30T04:28:28.799Z,0
2017-03-30T04:29:28.813Z,0
2017-03-30T04:30:29.171Z,0
2017-03-30T04:31:28.854Z,0
2017-03-30T04:32:28.869Z,4
2017-03-30T04:33:28.892Z,4
2017-03-30T04:34:29.218Z,0
2017-03-30T04:35:29.240Z,4
2017-03-30T04:36:28.942Z,4
2017-03-30T04:37:29.281Z,4
2017-03-30T04:38:28.982Z,4
2017-03-30T04:39:29.335Z,4
2017-03-30T04:40:29.020Z,4
2017-03-30T04:41:29.347Z,8
2017-03-30T04:42:29.379Z,4
2017-03-30T04:43:29.395Z,8
2017-03-30T04:44:29.555Z,8
2017-03-30T04:45:29.425Z,12
2017-03-30T04:46:29.448Z,12
2017-03-30T04:47:29.153Z,12
2017-03-30T04:48:29.480Z,16
2017-03-30T04:49:29.506Z,16
2017-03-30T04:50:29.517Z,20
2017-03-30T04:51:29.532Z,16
2017-03-30T04:52:29.556Z,24
2017-03-30T04:53:29.575Z,24
2017-03-30T04:54:29.641Z,28
2017-03-30T04:55:29.636Z,28
2017-03-30T04:56:29.715Z,28
2017-03-30T04:57:29.657Z,32
2017-03-30T04:58:29.878Z,36
2017-03-30T04:59:30.032Z,40
2017-03-30T05:00:29.845Z,40
2017-03-30T05:01:29.745Z,44
2017-03-30T05:02:29.834Z,48
2017-03-30T05:03:29.868Z,48
2017-03-30T05:04:29.873Z,52
2017-03-30T05:05:29.882Z,52
2017-03-30T05:06:29.883Z,52
2017-03-30T05:07:29.871Z,56
2017-03-30T05:08:29.857Z,56
2017-03-30T05:09:30.026Z,60
2017-03-30T05:10:29.699Z,68
2017-03-30T05:11:29.733Z,76
2017-03-30T05:12:30.039Z,80
2017-03-30T05:13:30.155Z,84
2017-03-30T05:14:30.162Z,80
2017-03-30T05:15:30.173Z,88
2017-03-30T05:16:30.186Z,100
2017-03-30T05:17:29.812Z,108
2017-03-30T05:18:29.853Z,108
2017-03-30T05:19:30.156Z,108
2017-03-30T05:20:30.111Z,116
2017-03-30T05:21:30.048Z,124
2017-03-30T05:22:30.182Z,124
2017-03-30T05:23:30.230Z,124
2017-03-30T05:24:30.154Z,120
2017-03-30T05:25:30.370Z,120
2017-03-30T05:26:30.191Z,128
2017-03-30T05:27:30.102Z,136
2017-03-30T05:28:30.237Z,164
2017-03-30T05:29:30.247Z,184
2017-03-30T05:30:29.951Z,192
2017-03-30T05:31:30.390Z,196
2017-03-30T05:32:29.984Z,200
2017-03-30T05:33:30.321Z,208
2017-03-30T05:34:30.337Z,216
2017-03-30T05:35:30.503Z,220
2017-03-30T05:36:30.477Z,232
2017-03-30T05:37:30.506Z,244
2017-03-30T05:38:30.517Z,268
2017-03-30T05:39:30.120Z,288
2017-03-30T05:40:30.473Z,308
2017-03-30T05:41:30.158Z,312
2017-03-30T05:42:30.610Z,312
2017-03-30T05:43:30.628Z,320
2017-03-30T05:44:30.619Z,332
2017-03-30T05:45:30.579Z,356
2017-03-30T05:46:30.346Z,392
2017-03-30T05:47:30.582Z,408
2017-03-30T05:48:30.598Z,416
2017-03-30T05:49:30.188Z,420
2017-03-30T05:50:30.821Z,424
2017-03-30T05:51:30.832Z,432
2017-03-30T05:52:30.836Z,436
2017-03-30T05:53:30.843Z,440
2017-03-30T05:54:30.776Z,448
2017-03-30T05:55:30.783Z,480
2017-03-30T05:56:30.440Z,508
2017-03-30T05:57:30.791Z,520
2017-03-30T05:58:30.806Z,512
2017-03-30T05:59:30.177Z,464
2017-03-30T06:00:30.971Z,428
2017-03-30T06:01:30.533Z,420
2017-03-30T06:02:30.913Z,424
2017-03-30T06:03:30.561Z,428
2017-03-30T06:04:30.587Z,436
2017-03-30T06:05:30.602Z,440
2017-03-30T06:06:30.652Z,452
2017-03-30T06:07:31.168Z,468
2017-03-30T06:08:31.015Z,492
2017-03-30T06:09:31.225Z,512
2017-03-30T06:10:31.026Z,536
2017-03-30T06:11:30.870Z,560
2017-03-30T06:12:30.879Z,584
2017-03-30T06:13:31.068Z,600
2017-03-30T06:14:30.574Z,600
2017-03-30T06:15:31.905Z,584
2017-03-30T06:16:38.578Z,572
2017-03-30T06:17:31.102Z,576
2017-03-30T06:18:31.391Z,584
2017-03-30T06:19:33.745Z,564
2017-03-30T06:20:33.662Z,528
2017-03-30T06:21:31.310Z,552
2017-03-30T06:22:31.340Z,584
2017-03-30T06:23:31.262Z,588
2017-03-30T06:24:31.279Z,608
2017-03-30T06:25:31.415Z,624
2017-03-30T06:26:31.037Z,624
2017-03-30T06:27:31.434Z,624
2017-03-30T06:28:31.050Z,628
2017-03-30T06:29:30.764Z,648
2017-03-30T06:30:31.117Z,660
2017-03-30T06:31:30.787Z,660
2017-03-30T06:32:31.116Z,672
2017-03-30T06:33:31.559Z,688
2017-03-30T06:34:31.148Z,712
2017-03-30T06:35:30.855Z,768
2017-03-30T06:36:31.705Z,792
2017-03-30T06:37:31.721Z,796
2017-03-30T06:38:31.719Z,788
2017-03-30T06:39:31.414Z,784
2017-03-30T06:40:31.739Z,784
2017-03-30T06:41:31.291Z,768
2017-03-30T06:42:31.722Z,760
2017-03-30T06:43:31.753Z,748
2017-03-30T06:44:31.762Z,756
2017-03-30T06:45:31.770Z,792
2017-03-30T06:46:31.779Z,828
2017-03-30T06:47:31.833Z,892
2017-03-30T06:48:31.826Z,972
2017-03-30T06:49:31.838Z,1012
2017-03-30T06:50:31.586Z,988
2017-03-30T06:51:31.854Z,908
2017-03-30T06:52:31.908Z,836
2017-03-30T06:53:31.898Z,776
2017-03-30T06:54:31.728Z,736
2017-03-30T06:55:31.939Z,712
2017-03-30T06:56:31.954Z,716
2017-03-30T06:57:31.967Z,712
2017-03-30T06:58:31.911Z,680
2017-03-30T06:59:31.937Z,608
2017-03-30T07:00:31.953Z,600
2017-03-30T07:01:31.974Z,544
2017-03-30T07:02:31.993Z,488
2017-03-30T07:03:32.013Z,448
2017-03-30T07:04:32.027Z,396
2017-03-30T07:05:31.883Z,424
2017-03-30T07:06:32.066Z,480
2017-03-30T07:07:32.091Z,476
2017-03-30T07:08:32.137Z,444
2017-03-30T07:09:32.129Z,436
2017-03-30T07:10:31.930Z,496
2017-03-30T07:11:32.169Z,536
2017-03-30T07:12:32.336Z,556
2017-03-30T07:13:32.200Z,556
2017-03-30T07:14:31.926Z,600
2017-03-30T07:15:32.246Z,656
2017-03-30T07:16:32.259Z,708
2017-03-30T07:17:32.281Z,844
2017-03-30T07:18:32.299Z,900
2017-03-30T07:19:32.315Z,836
2017-03-30T07:20:32.335Z,756
2017-03-30T07:21:32.354Z,708
2017-03-30T07:22:32.378Z,740
2017-03-30T07:23:32.393Z,788
2017-03-30T07:24:32.622Z,804
2017-03-30T07:25:32.430Z,864
2017-03-30T07:26:32.450Z,908
2017-03-30T07:27:32.157Z,936
2017-03-30T07:28:32.173Z,884
2017-03-30T07:29:32.505Z,776
2017-03-30T07:30:32.533Z,768
2017-03-30T07:31:32.543Z,888
2017-03-30T07:32:32.572Z,968
2017-03-30T07:33:32.580Z,1252
2017-03-30T07:34:32.686Z,1304
2017-03-30T07:35:32.617Z,1172
2017-03-30T07:36:32.337Z,1092
2017-03-30T07:37:32.665Z,1108
2017-03-30T07:38:32.678Z,1260
2017-03-30T07:39:32.697Z,1412
2017-03-30T07:40:32.720Z,1516
2017-03-30T07:41:32.743Z,1712
2017-03-30T07:42:32.447Z,1972
2017-03-30T07:43:32.778Z,1812
2017-03-30T07:44:32.476Z,1540
2017-03-30T07:45:32.817Z,1284
2017-03-30T07:46:32.973Z,1328
2017-03-30T07:47:32.883Z,1376
2017-03-30T07:48:32.881Z,1376
2017-03-30T07:49:32.896Z,1392
2017-03-30T07:50:32.915Z,1676
2017-03-30T07:51:32.928Z,2036
2017-03-30T07:52:32.948Z,1960
2017-03-30T07:53:32.965Z,1500
2017-03-30T07:54:33.000Z,1132
2017-03-30T07:55:32.910Z,1032
2017-03-30T07:56:33.028Z,1104
2017-03-30T07:57:33.043Z,1148
2017-03-30T07:58:33.073Z,1140
2017-03-30T07:59:33.088Z,1056
2017-03-30T08:00:33.106Z,1092
2017-03-30T08:01:33.127Z,1124
2017-03-30T08:02:33.149Z,1248
2017-03-30T08:03:33.165Z,1404
2017-03-30T08:04:33.188Z,1456
2017-03-30T08:05:33.208Z,1460
2017-03-30T08:06:33.221Z,1580
2017-03-30T08:07:33.244Z,1716
2017-03-30T08:08:33.259Z,1788
2017-03-30T08:09:33.282Z,1900
2017-03-30T08:10:33.298Z,2024
2017-03-30T08:11:33.330Z,2120
2017-03-30T08:12:33.336Z,2160
2017-03-30T08:13:33.409Z,2024
2017-03-30T08:14:33.379Z,1892
2017-03-30T08:15:33.398Z,1752
2017-03-30T08:16:33.422Z,1712
2017-03-30T08:17:32.815Z,1824
2017-03-30T08:18:33.443Z,1884
2017-03-30T08:19:33.475Z,2044
2017-03-30T08:20:33.188Z,2060
2017-03-30T08:21:32.893Z,1800
2017-03-30T08:22:33.233Z,1676
2017-03-30T08:23:33.658Z,1672
2017-03-30T08:24:33.668Z,1620
2017-03-30T08:25:33.671Z,1540
2017-03-30T08:26:33.305Z,1416
2017-03-30T08:27:33.738Z,1312
2017-03-30T08:28:33.748Z,1304
2017-03-30T08:29:33.748Z,1404
2017-03-30T08:30:33.760Z,1536
2017-03-30T08:31:33.401Z,1616
2017-03-30T08:32:33.866Z,1672
2017-03-30T08:33:33.882Z,1692
2017-03-30T08:34:33.883Z,1608
2017-03-30T08:35:33.606Z,1508
2017-03-30T08:36:33.934Z,1416
2017-03-30T08:37:33.934Z,1396
2017-03-30T08:38:33.318Z,1444
2017-03-30T08:39:34.013Z,1572
2017-03-30T08:40:34.021Z,1636
2017-03-30T08:41:33.709Z,1548
2017-03-30T08:42:33.728Z,1376
2017-03-30T08:43:34.172Z,1288
2017-03-30T08:44:33.556Z,1192
2017-03-30T08:45:34.190Z,1040
2017-03-30T08:46:34.205Z,1000
2017-03-30T08:47:34.212Z,1032
2017-03-30T08:48:34.216Z,1004
2017-03-30T08:49:34.218Z,1020
2017-03-30T08:50:34.244Z,1180
2017-03-30T08:51:34.200Z,1348
2017-03-30T08:52:33.885Z,1348
2017-03-30T08:53:33.896Z,1388
2017-03-30T08:54:34.216Z,1324
2017-03-30T08:55:34.022Z,1264
2017-03-30T08:56:34.248Z,1368
2017-03-30T08:57:34.021Z,1356
2017-03-30T08:58:34.263Z,1204
2017-03-30T08:59:34.291Z,1164
2017-03-30T09:00:34.299Z,1212
2017-03-30T09:01:34.326Z,1220
2017-03-30T09:02:34.345Z,1192
2017-03-30T09:03:34.051Z,1252
2017-03-30T09:04:34.178Z,1420
2017-03-30T09:05:34.089Z,1592
2017-03-30T09:06:34.428Z,1720
2017-03-30T09:07:34.129Z,1644
2017-03-30T09:08:34.211Z,1548
2017-03-30T09:09:34.225Z,1516
2017-03-30T09:10:34.508Z,1488
2017-03-30T09:11:34.532Z,1516
2017-03-30T09:12:34.543Z,1712
2017-03-30T09:13:34.255Z,1956
2017-03-30T09:14:34.598Z,2160
2017-03-30T09:15:34.606Z,2232
2017-03-30T09:16:34.320Z,2216
2017-03-30T09:17:34.658Z,2404
2017-03-30T09:18:34.681Z,2564
2017-03-30T09:19:34.693Z,2308
2017-03-30T09:20:34.716Z,2172
2017-03-30T09:21:34.739Z,2108
2017-03-30T09:22:34.758Z,2104
2017-03-30T09:23:34.775Z,2140
2017-03-30T09:24:34.793Z,2160
2017-03-30T09:25:34.824Z,2148
2017-03-30T09:26:34.846Z,2196
2017-03-30T09:27:34.860Z,2176
2017-03-30T09:28:34.966Z,2152
2017-03-30T09:29:34.678Z,2144
2017-03-30T09:30:35.117Z,2324
2017-03-30T09:31:35.126Z,2536
2017-03-30T09:32:34.817Z,2768
2017-03-30T09:33:34.796Z,2764
2017-03-30T09:34:35.146Z,2660
2017-03-30T09:35:35.159Z,2656
2017-03-30T09:36:35.166Z,2592
2017-03-30T09:37:35.164Z,2432
2017-03-30T09:38:35.284Z,2504
2017-03-30T09:39:34.945Z,2564
2017-03-30T09:40:35.163Z,2504
2017-03-30T09:41:35.156Z,2280
2017-03-30T09:42:35.169Z,1912
2017-03-30T09:43:35.234Z,1760
2017-03-30T09:44:35.211Z,1612
2017-03-30T09:45:35.309Z,1480
2017-03-30T09:46:35.252Z,1224
2017-03-30T09:47:35.280Z,1008
2017-03-30T09:48:35.297Z,920
2017-03-30T09:49:35.315Z,860
2017-03-30T09:50:35.338Z,824
2017-03-30T09:51:35.045Z,796
2017-03-30T09:52:35.128Z,760
2017-03-30T09:53:35.403Z,736
2017-03-30T09:54:35.432Z,696
2017-03-30T09:55:35.487Z,672
2017-03-30T09:56:35.473Z,640
2017-03-30T09:57:35.485Z,612
2017-03-30T09:58:35.514Z,624
2017-03-30T09:59:35.529Z,668
2017-03-30T10:00:35.548Z,708
2017-03-30T10:01:35.577Z,728
2017-03-30T10:02:35.608Z,744
2017-03-30T10:03:35.628Z,792
2017-03-30T10:04:35.651Z,908
2017-03-30T10:05:35.659Z,1148
2017-03-30T10:06:35.678Z,1572
2017-03-30T10:07:35.694Z,2052
2017-03-30T10:08:35.724Z,2320
2017-03-30T10:09:35.734Z,2236
2017-03-30T10:10:35.762Z,1916
2017-03-30T10:11:35.800Z,1836
2017-03-30T10:12:35.489Z,2068
2017-03-30T10:13:36.026Z,2668
2017-03-30T10:14:35.844Z,2780
2017-03-30T10:15:35.864Z,3116
2017-03-30T10:16:35.577Z,3172
2017-03-30T10:17:35.909Z,3232
2017-03-30T10:18:35.624Z,3144
2017-03-30T10:19:35.955Z,3024
2017-03-30T10:20:35.976Z,2692
2017-03-30T10:21:35.683Z,2584
2017-03-30T10:22:36.022Z,2480
2017-03-30T10:23:36.044Z,2452
2017-03-30T10:24:35.747Z,2328
2017-03-30T10:25:36.083Z,2312
2017-03-30T10:26:36.110Z,2224
2017-03-30T10:27:36.123Z,2024
2017-03-30T10:28:36.147Z,2104
2017-03-30T10:29:35.854Z,2272
2017-03-30T10:30:36.188Z,2540
2017-03-30T10:31:36.215Z,2516
2017-03-30T10:32:36.234Z,2580
2017-03-30T10:33:36.262Z,2484
2017-03-30T10:34:36.277Z,2364
2017-03-30T10:35:36.298Z,2352
2017-03-30T10:36:36.320Z,2280
2017-03-30T10:37:36.344Z,2372
2017-03-30T10:38:36.364Z,2420
2017-03-30T10:39:36.382Z,2220
2017-03-30T10:40:36.413Z,1976
2017-03-30T10:41:36.447Z,1876
2017-03-30T10:42:36.466Z,1796
2017-03-30T10:43:36.474Z,2020
2017-03-30T10:44:36.184Z,2188
2017-03-30T10:45:36.222Z,2360
2017-03-30T10:46:36.230Z,2644
2017-03-30T10:47:36.558Z,2712
2017-03-30T10:48:36.834Z,2976
2017-03-30T10:49:36.603Z,3272
2017-03-30T10:50:36.625Z,3552
2017-03-30T10:51:36.647Z,3644
2017-03-30T10:52:36.666Z,3712
2017-03-30T10:53:36.698Z,3952
2017-03-30T10:54:36.833Z,4172
2017-03-30T10:55:36.844Z,4208
2017-03-30T10:56:36.849Z,3716
2017-03-30T10:57:36.596Z,3348
2017-03-30T10:58:36.882Z,2912
2017-03-30T10:59:36.820Z,2980
2017-03-30T11:00:36.898Z,3200
2017-03-30T11:01:36.594Z,3436
2017-03-30T11:02:36.928Z,3544
2017-03-30T11:03:36.926Z,3440
2017-03-30T11:04:36.624Z,3612
2017-03-30T11:05:37.065Z,3808
2017-03-30T11:06:36.692Z,3844
2017-03-30T11:07:37.004Z,3768
2017-03-30T11:08:37.141Z,3332
2017-03-30T11:09:37.144Z,3136
2017-03-30T11:10:36.866Z,3036
2017-03-30T11:11:37.327Z,2508
2017-03-30T11:12:37.524Z,2440
2017-03-30T11:13:37.338Z,2292
2017-03-30T11:14:37.347Z,2052
2017-03-30T11:15:37.357Z,1936
2017-03-30T11:16:37.366Z,1952
2017-03-30T11:17:37.372Z,1940
2017-03-30T11:18:37.383Z,2064
2017-03-30T11:19:37.458Z,2192
2017-03-30T11:20:37.430Z,2072
2017-03-30T11:21:37.438Z,1916
2017-03-30T11:22:37.442Z,1796
2017-03-30T11:23:37.447Z,1736
2017-03-30T11:24:37.524Z,1928
2017-03-30T11:25:37.508Z,2220
2017-03-30T11:26:37.504Z,2336
2017-03-30T11:27:37.536Z,2060
2017-03-30T11:28:37.266Z,2324
2017-03-30T11:29:37.598Z,2484
2017-03-30T11:30:37.566Z,1964
2017-03-30T11:31:37.564Z,1508
2017-03-30T11:32:37.568Z,1240
2017-03-30T11:33:37.591Z,1396
2017-03-30T11:34:37.614Z,2164
2017-03-30T11:35:37.642Z,3060
2017-03-30T11:36:37.665Z,2444
2017-03-30T11:37:37.689Z,1892
2017-03-30T11:38:37.703Z,1776
2017-03-30T11:39:37.728Z,1904
2017-03-30T11:40:37.752Z,1752
2017-03-30T11:41:37.821Z,1796
2017-03-30T11:42:37.801Z,1904
2017-03-30T11:43:37.821Z,2124
2017-03-30T11:44:37.583Z,2256
2017-03-30T11:45:37.901Z,2024
2017-03-30T11:46:37.593Z,1844
2017-03-30T11:47:37.956Z,1944
2017-03-30T11:48:37.939Z,1756
2017-03-30T11:49:37.971Z,1460
2017-03-30T11:50:37.674Z,1464
2017-03-30T11:51:37.706Z,1388
2017-03-30T11:52:37.726Z,1504
2017-03-30T11:53:38.060Z,1440
2017-03-30T11:54:38.288Z,1324
2017-03-30T11:55:38.304Z,1356
2017-03-30T11:56:38.309Z,1384
2017-03-30T11:57:38.004Z,1372
2017-03-30T11:58:38.317Z,1460
2017-03-30T11:59:38.527Z,1496
2017-03-30T12:00:38.374Z,1600
2017-03-30T12:01:38.369Z,1796
2017-03-30T12:02:38.384Z,1868
2017-03-30T12:03:38.396Z,1728
2017-03-30T12:04:38.440Z,1688
2017-03-30T12:05:38.418Z,1732
2017-03-30T12:06:38.145Z,1688
2017-03-30T12:07:38.490Z,1704
2017-03-30T12:08:37.586Z,1688
2017-03-30T12:09:38.503Z,1540
2017-03-30T12:10:38.508Z,1040
2017-03-30T12:11:38.514Z,1312
2017-03-30T12:12:38.512Z,1356
2017-03-30T12:13:38.521Z,1364
2017-03-30T12:14:38.581Z,1292
2017-03-30T12:15:38.571Z,1212
2017-03-30T12:16:38.602Z,1228
2017-03-30T12:17:38.624Z,1216
2017-03-30T12:18:38.325Z,1208
2017-03-30T12:19:38.663Z,1164
2017-03-30T12:20:38.694Z,1176
2017-03-30T12:21:38.707Z,1168
2017-03-30T12:22:38.733Z,1164
2017-03-30T12:23:38.760Z,1152
2017-03-30T12:24:38.783Z,1176
2017-03-30T12:25:38.811Z,1204
2017-03-30T12:26:38.835Z,1272
2017-03-30T12:27:38.854Z,1336
2017-03-30T12:28:38.878Z,1516
2017-03-30T12:29:38.902Z,1756
2017-03-30T12:30:38.928Z,1800
2017-03-30T12:31:38.964Z,1472
2017-03-30T12:32:38.974Z,1280
2017-03-30T12:33:38.999Z,1240
2017-03-30T12:34:39.025Z,1200
2017-03-30T12:35:38.729Z,1200
2017-03-30T12:36:39.068Z,1216
2017-03-30T12:37:39.095Z,1228
2017-03-30T12:38:39.129Z,1292
2017-03-30T12:39:39.141Z,1396
2017-03-30T12:40:39.174Z,1440
2017-03-30T12:41:39.194Z,1448
2017-03-30T12:42:39.223Z,1388
2017-03-30T12:43:39.238Z,1264
2017-03-30T12:44:39.263Z,1180
2017-03-30T12:45:38.975Z,1276
2017-03-30T12:46:39.314Z,1236
2017-03-30T12:47:39.338Z,1256
2017-03-30T12:48:39.050Z,1224
2017-03-30T12:49:39.391Z,1068
2017-03-30T12:50:39.419Z,1184
2017-03-30T12:51:39.436Z,1128
2017-03-30T12:52:39.459Z,1148
2017-03-30T12:53:39.482Z,1176
2017-03-30T12:54:39.513Z,1212
2017-03-30T12:55:39.533Z,1244
2017-03-30T12:56:39.553Z,1156
2017-03-30T12:57:39.270Z,996
2017-03-30T12:58:39.292Z,944
2017-03-30T12:59:39.630Z,1032
2017-03-30T13:00:39.658Z,1256
2017-03-30T13:01:39.681Z,1184
2017-03-30T13:02:39.706Z,1092
2017-03-30T13:03:39.730Z,1052
2017-03-30T13:04:39.754Z,1072
2017-03-30T13:05:39.785Z,1060
2017-03-30T13:06:39.805Z,1056
2017-03-30T13:07:39.516Z,1060
2017-03-30T13:08:39.852Z,1080
2017-03-30T13:09:39.880Z,1148
2017-03-30T13:10:39.931Z,1248
2017-03-30T13:11:39.962Z,1292
2017-03-30T13:12:39.952Z,1240
2017-03-30T13:13:39.979Z,1224
2017-03-30T13:14:39.379Z,1248
2017-03-30T13:15:40.032Z,1288
2017-03-30T13:16:39.741Z,1308
2017-03-30T13:17:40.080Z,1376
2017-03-30T13:18:40.107Z,1468
2017-03-30T13:19:40.125Z,1416
2017-03-30T13:20:39.846Z,1316
2017-03-30T13:21:40.180Z,1404
2017-03-30T13:22:40.205Z,1268
2017-03-30T13:23:40.224Z,1108
2017-03-30T13:24:39.944Z,1064
2017-03-30T13:25:39.993Z,1056
2017-03-30T13:26:39.683Z,1048
2017-03-30T13:27:40.340Z,1028
2017-03-30T13:28:40.359Z,1008
2017-03-30T13:29:40.072Z,1012
2017-03-30T13:30:40.420Z,1016
2017-03-30T13:31:40.124Z,1032
2017-03-30T13:32:40.468Z,1056
2017-03-30T13:33:40.375Z,1080
2017-03-30T13:34:40.198Z,1156
2017-03-30T13:35:40.222Z,1272
2017-03-30T13:36:40.675Z,1404
2017-03-30T13:37:40.708Z,1468
2017-03-30T13:38:40.709Z,1440
2017-03-30T13:39:40.337Z,1308
2017-03-30T13:40:40.705Z,1304
2017-03-30T13:41:40.385Z,1000
2017-03-30T13:42:40.724Z,952
2017-03-30T13:43:40.860Z,928
2017-03-30T13:44:40.868Z,1216
2017-03-30T13:45:40.490Z,1376
2017-03-30T13:46:40.858Z,1684
2017-03-30T13:47:40.868Z,2264
2017-03-30T13:48:40.956Z,2556
2017-03-30T13:49:40.965Z,2608
2017-03-30T13:50:40.670Z,2580
2017-03-30T13:51:40.673Z,2184
2017-03-30T13:52:40.982Z,1928
2017-03-30T13:53:41.001Z,2108
2017-03-30T13:54:41.035Z,1988